YBSS weather

Bacchus Marsh Airport
Victoria, Australia

Public forecast

Using degrees Celsius for public forecast. Weather courtesy of forecast.io.

Closest aviation weather report (METAR) to Bacchus Marsh Airport

Closest report is Avalon Airport, 18.5 nm (34.3 km) S. Retrieved 2019/10/20 22:30 UTC (12 minutes ago):

YMAV 202230Z AUTO 28006KT 9999 // OVC016 12/09 Q1029 RF000/0000

Closest aviation forecast (TAF) to Bacchus Marsh Airport

Closest forecast is Avalon Airport, 18.5 nm (34.3 km) S. Retrieved 2019/10/20 18:00 UTC (5 hours ago):

TAF YMAV 201713Z 2018/2118 26005KT 9999 SCT015 FM210200 14012KT 9999 FEW020 FM210800 17006KT 9999 BKN010 TEMPO 2112/2118 9999 BKN007 PROB30 2018/2022 0500 FG BKN004